ELY034 EHAM-LLBG
Flight info
| Callsign | ELY034 |
|---|---|
| Flight time | N/A |
| Altitude | 31000 |
| Route | LOPIK N852 DIK M150 GEBDA Y173 PABLA DCT UTABA L607 MOMUK DCT GEDSO DCT URAVA DCT ROPUS DCT ETOBI DCT RIVUS DCT MEDUX UM867 KOGAT DCT MAKED UL617 TSL UN130 MES UL609 ALKIS L609 MAROS DCT APLON DCT ZUKKO |
| Aircraft | B748/H-SDE3FGHIM1M2RWXY/LB1 |
Departure
| Time | 2026-05-07 18:46 |
|---|---|
| Airport | Amsterdam Airport Schiphol (EHAM) |
Arrival
| Time | N/A |
|---|---|
| Airport | Ben Gurion International Airport (LLBG) |
| Time | Latitude | Longitude | Altitude | Speed | Heading |
|---|---|---|---|---|---|
| 2026-05-07 18:23 | 52.31299 | 4.75816 | 5 ft | 0 kts | 267° |
| 2026-05-07 18:30 | 52.31300 | 4.75840 | 7 ft | 3 kts | 257° |
| 2026-05-07 18:30 | 52.31301 | 4.75873 | 8 ft | 3 kts | 299° |
| 2026-05-07 18:31 | 52.31288 | 4.75899 | 9 ft | 3 kts | 322° |
| 2026-05-07 18:31 | 52.31270 | 4.75917 | 7 ft | 3 kts | 359° |
| 2026-05-07 18:31 | 52.31278 | 4.75917 | 7 ft | 0 kts | 359° |
| 2026-05-07 18:35 | 52.31279 | 4.75917 | 7 ft | 1 kts | 359° |
| 2026-05-07 18:35 | 52.31296 | 4.75917 | 7 ft | 3 kts | 1° |
| 2026-05-07 18:35 | 52.31322 | 4.75918 | 7 ft | 4 kts | 2° |
| 2026-05-07 18:35 | 52.31376 | 4.75921 | 5 ft | 11 kts | 1° |
| 2026-05-07 18:36 | 52.31460 | 4.75912 | 6 ft | 11 kts | 346° |
| 2026-05-07 18:36 | 52.31509 | 4.75847 | 6 ft | 9 kts | 300° |
| 2026-05-07 18:36 | 52.31521 | 4.75727 | 5 ft | 12 kts | 272° |
| 2026-05-07 18:36 | 52.31519 | 4.75599 | 5 ft | 11 kts | 265° |
| 2026-05-07 18:37 | 52.31514 | 4.75478 | 5 ft | 11 kts | 266° |
| 2026-05-07 18:37 | 52.31509 | 4.75350 | 5 ft | 12 kts | 268° |
| 2026-05-07 18:37 | 52.31503 | 4.75206 | 5 ft | 13 kts | 264° |
| 2026-05-07 18:37 | 52.31496 | 4.75050 | 5 ft | 14 kts | 268° |
| 2026-05-07 18:38 | 52.31493 | 4.74883 | 5 ft | 15 kts | 267° |
| 2026-05-07 18:38 | 52.31487 | 4.74709 | 6 ft | 15 kts | 267° |
| 2026-05-07 18:38 | 52.31484 | 4.74542 | 6 ft | 14 kts | 267° |
| 2026-05-07 18:38 | 52.31478 | 4.74382 | 6 ft | 14 kts | 266° |
| 2026-05-07 18:39 | 52.31458 | 4.74239 | 6 ft | 12 kts | 243° |
| 2026-05-07 18:39 | 52.31403 | 4.74158 | 6 ft | 10 kts | 204° |
| 2026-05-07 18:39 | 52.31334 | 4.74134 | 6 ft | 10 kts | 186° |
| 2026-05-07 18:39 | 52.31263 | 4.74128 | 5 ft | 10 kts | 181° |
| 2026-05-07 18:40 | 52.31199 | 4.74125 | 5 ft | 6 kts | 179° |
| 2026-05-07 18:40 | 52.31156 | 4.74123 | 5 ft | 6 kts | 184° |
| 2026-05-07 18:40 | 52.31114 | 4.74117 | 5 ft | 6 kts | 184° |
| 2026-05-07 18:40 | 52.31074 | 4.74114 | 5 ft | 6 kts | 181° |
| 2026-05-07 18:41 | 52.31034 | 4.74112 | 5 ft | 6 kts | 182° |
| 2026-05-07 18:41 | 52.30997 | 4.74109 | 5 ft | 5 kts | 182° |
| 2026-05-07 18:41 | 52.30955 | 4.74105 | 5 ft | 6 kts | 183° |
| 2026-05-07 18:41 | 52.30907 | 4.74100 | 5 ft | 7 kts | 185° |
| 2026-05-07 18:42 | 52.30841 | 4.74092 | 5 ft | 13 kts | 183° |
| 2026-05-07 18:42 | 52.30747 | 4.74082 | 5 ft | 13 kts | 184° |
| 2026-05-07 18:42 | 52.30658 | 4.74073 | 5 ft | 13 kts | 181° |
| 2026-05-07 18:42 | 52.30601 | 4.74072 | 5 ft | 12 kts | 181° |
| 2026-05-07 18:43 | 52.30518 | 4.74066 | 5 ft | 11 kts | 183° |
| 2026-05-07 18:43 | 52.30441 | 4.74059 | 5 ft | 11 kts | 184° |
| 2026-05-07 18:43 | 52.30369 | 4.74043 | 5 ft | 10 kts | 193° |
| 2026-05-07 18:43 | 52.30297 | 4.74000 | 5 ft | 13 kts | 204° |
| 2026-05-07 18:44 | 52.30213 | 4.73905 | 5 ft | 15 kts | 228° |
| 2026-05-07 18:44 | 52.30198 | 4.73808 | 5 ft | 2 kts | 294° |
| 2026-05-07 18:44 | 52.30222 | 4.73771 | 4 ft | 9 kts | 324° |
| 2026-05-07 18:44 | 52.30279 | 4.73742 | 3 ft | 9 kts | 355° |
| 2026-05-07 18:45 | 52.30420 | 4.73747 | 3 ft | 44 kts | 4° |
| 2026-05-07 18:45 | 52.31035 | 4.73811 | 6 ft | 130 kts | 4° |
| 2026-05-07 18:45 | 52.32153 | 4.73898 | 8 ft | 171 kts | 2° |
| 2026-05-07 18:45 | 52.33377 | 4.73917 | 379 ft | 178 kts | 2° |
| 2026-05-07 18:46 | 52.34629 | 4.74312 | 776 ft | 192 kts | 23° |
| 2026-05-07 18:46 | 52.35815 | 4.75275 | 1202 ft | 193 kts | 29° |
| 2026-05-07 18:46 | 52.36934 | 4.76512 | 1851 ft | 198 kts | 53° |
| 2026-05-07 18:46 | 52.37464 | 4.78518 | 2552 ft | 199 kts | 82° |
| 2026-05-07 18:47 | 52.37294 | 4.80756 | 3220 ft | 203 kts | 103° |
| 2026-05-07 18:47 | 52.36862 | 4.83042 | 3635 ft | 219 kts | 120° |
| 2026-05-07 18:47 | 52.35745 | 4.84831 | 4094 ft | 232 kts | 156° |
| 2026-05-07 18:47 | 52.34154 | 4.85345 | 4872 ft | 239 kts | 182° |
| 2026-05-07 18:48 | 52.32484 | 4.85093 | 5770 ft | 242 kts | 185° |
| 2026-05-07 18:48 | 52.30798 | 4.84868 | 6727 ft | 244 kts | 182° |
| 2026-05-07 18:48 | 52.29052 | 4.84814 | 7564 ft | 254 kts | 180° |
| 2026-05-07 18:48 | 52.27401 | 4.84823 | 8425 ft | 261 kts | 180° |
| 2026-05-07 18:49 | 52.25597 | 4.85241 | 9333 ft | 267 kts | 157° |
| 2026-05-07 18:49 | 52.24020 | 4.86879 | 10166 ft | 275 kts | 142° |
| 2026-05-07 18:49 | 52.22518 | 4.88883 | 10999 ft | 281 kts | 141° |
| 2026-05-07 18:49 | 52.21005 | 4.90924 | 12127 ft | 285 kts | 142° |
| 2026-05-07 18:50 | 52.19428 | 4.92968 | 12931 ft | 294 kts | 143° |
| 2026-05-07 18:50 | 52.17814 | 4.95031 | 13066 ft | 294 kts | 143° |
| 2026-05-07 18:50 | 52.16188 | 4.97131 | 13085 ft | 312 kts | 143° |
| 2026-05-07 18:50 | 52.16070 | 4.97285 | 13082 ft | 313 kts | 142° |
| 2026-05-07 18:51 | 52.14574 | 4.99225 | 13092 ft | 324 kts | 142° |
| 2026-05-07 18:51 | 52.12803 | 5.01520 | 13091 ft | 327 kts | 143° |
| 2026-05-07 18:51 | 52.11016 | 5.03824 | 13095 ft | 328 kts | 143° |
| 2026-05-07 18:51 | 52.09189 | 5.05657 | 13444 ft | 328 kts | 162° |
| 2026-05-07 18:52 | 52.06994 | 5.06742 | 14310 ft | 329 kts | 165° |
| 2026-05-07 18:52 | 52.04803 | 5.07704 | 15171 ft | 333 kts | 166° |
| 2026-05-07 18:52 | 52.02544 | 5.08677 | 15979 ft | 337 kts | 166° |
| 2026-05-07 18:52 | 52.00268 | 5.09697 | 16734 ft | 341 kts | 165° |
| 2026-05-07 18:53 | 51.97970 | 5.10739 | 17455 ft | 345 kts | 165° |
| 2026-05-07 18:53 | 51.96906 | 5.11216 | 17775 ft | 347 kts | 166° |
| 2026-05-07 18:53 | 51.94756 | 5.12172 | 18389 ft | 350 kts | 166° |
| 2026-05-07 18:53 | 51.92780 | 5.13048 | 18871 ft | 353 kts | 166° |
| 2026-05-07 18:54 | 51.90399 | 5.14107 | 19444 ft | 356 kts | 166° |
| 2026-05-07 18:54 | 51.87992 | 5.15181 | 19962 ft | 361 kts | 166° |
| 2026-05-07 18:54 | 51.85552 | 5.16265 | 20086 ft | 370 kts | 166° |
| 2026-05-07 18:54 | 51.82975 | 5.17405 | 20106 ft | 396 kts | 166° |
| 2026-05-07 18:55 | 51.80249 | 5.18614 | 20185 ft | 412 kts | 166° |
| 2026-05-07 18:55 | 51.77452 | 5.19854 | 20693 ft | 417 kts | 166° |
| 2026-05-07 18:55 | 51.74655 | 5.21090 | 21252 ft | 422 kts | 166° |
| 2026-05-07 18:55 | 51.71808 | 5.22345 | 21839 ft | 425 kts | 166° |
| 2026-05-07 18:56 | 51.68930 | 5.23614 | 22363 ft | 429 kts | 166° |
| 2026-05-07 18:56 | 51.66043 | 5.24887 | 22902 ft | 432 kts | 166° |
| 2026-05-07 18:56 | 51.63130 | 5.26167 | 23390 ft | 436 kts | 166° |
| 2026-05-07 18:56 | 51.60193 | 5.27455 | 23834 ft | 438 kts | 166° |
| 2026-05-07 18:57 | 51.57273 | 5.28733 | 24219 ft | 441 kts | 166° |
| 2026-05-07 18:57 | 51.54301 | 5.30037 | 24595 ft | 444 kts | 166° |
| 2026-05-07 18:57 | 51.51315 | 5.31345 | 25030 ft | 446 kts | 167° |
| 2026-05-07 18:57 | 51.48307 | 5.32657 | 25498 ft | 449 kts | 167° |
| 2026-05-07 18:58 | 51.45285 | 5.33973 | 25947 ft | 451 kts | 167° |
| 2026-05-07 18:58 | 51.42246 | 5.35298 | 26387 ft | 454 kts | 167° |
| 2026-05-07 18:58 | 51.39181 | 5.36632 | 26799 ft | 456 kts | 167° |
| 2026-05-07 18:58 | 51.36114 | 5.37963 | 27215 ft | 459 kts | 167° |
| 2026-05-07 18:59 | 51.33026 | 5.39303 | 27613 ft | 461 kts | 167° |
| 2026-05-07 18:59 | 51.29914 | 5.40652 | 28005 ft | 464 kts | 167° |
| 2026-05-07 18:59 | 51.26779 | 5.42003 | 28382 ft | 466 kts | 168° |
| 2026-05-07 18:59 | 51.23606 | 5.43084 | 28752 ft | 468 kts | 170° |
| 2026-05-07 19:00 | 51.20414 | 5.44143 | 29122 ft | 470 kts | 170° |
| 2026-05-07 19:00 | 51.17215 | 5.45316 | 29491 ft | 473 kts | 167° |
| 2026-05-07 19:00 | 51.14025 | 5.46734 | 29818 ft | 476 kts | 166° |
| 2026-05-07 19:00 | 51.10831 | 5.48132 | 30138 ft | 478 kts | 167° |
| 2026-05-07 19:01 | 51.07618 | 5.49523 | 30397 ft | 480 kts | 167° |
| 2026-05-07 19:01 | 51.04380 | 5.50930 | 30658 ft | 482 kts | 167° |
| 2026-05-07 19:01 | 51.01141 | 5.52345 | 30914 ft | 484 kts | 167° |
| 2026-05-07 19:01 | 50.97882 | 5.53764 | 31065 ft | 487 kts | 167° |
| 2026-05-07 19:02 | 50.94616 | 5.55179 | 31061 ft | 486 kts | 166° |
| 2026-05-07 19:02 | 50.91449 | 5.57043 | 31093 ft | 487 kts | 155° |
| 2026-05-07 19:02 | 50.88543 | 5.59865 | 31092 ft | 492 kts | 144° |
| 2026-05-07 19:03 | 50.83489 | 5.67194 | 31080 ft | 503 kts | 138° |
| 2026-05-07 19:03 | 50.78341 | 5.74992 | 31088 ft | 521 kts | 138° |
| 2026-05-07 19:04 | 50.73032 | 5.82949 | 31078 ft | 528 kts | 138° |
| 2026-05-07 19:04 | 50.67691 | 5.90964 | 31079 ft | 529 kts | 138° |
| 2026-05-07 19:05 | 50.62340 | 5.98947 | 31079 ft | 529 kts | 138° |
| 2026-05-07 19:05 | 50.56992 | 6.06908 | 31072 ft | 529 kts | 138° |
| 2026-05-07 19:06 | 50.51663 | 6.14812 | 31069 ft | 529 kts | 138° |
| 2026-05-07 19:06 | 50.43599 | 6.26721 | 31066 ft | 529 kts | 138° |
| 2026-05-07 19:07 | 50.38227 | 6.34627 | 31067 ft | 530 kts | 138° |
| 2026-05-07 19:07 | 50.32880 | 6.42464 | 31066 ft | 530 kts | 138° |
| 2026-05-07 19:08 | 50.27501 | 6.50329 | 31054 ft | 530 kts | 138° |
| 2026-05-07 19:08 | 50.22111 | 6.58185 | 31051 ft | 530 kts | 139° |
| 2026-05-07 19:09 | 50.16702 | 6.66036 | 31042 ft | 530 kts | 138° |
| 2026-05-07 19:09 | 50.11289 | 6.73871 | 31032 ft | 531 kts | 138° |
| 2026-05-07 19:10 | 50.05870 | 6.81688 | 31041 ft | 531 kts | 138° |
| 2026-05-07 19:10 | 50.00476 | 6.89448 | 31044 ft | 531 kts | 139° |
| 2026-05-07 19:11 | 49.95049 | 6.97223 | 31047 ft | 531 kts | 139° |
| 2026-05-07 19:11 | 49.89607 | 7.05005 | 31072 ft | 531 kts | 139° |
| 2026-05-07 19:12 | 49.84158 | 7.12762 | 31069 ft | 532 kts | 139° |
| 2026-05-07 19:12 | 49.78705 | 7.20507 | 31067 ft | 532 kts | 139° |
| 2026-05-07 19:13 | 49.73249 | 7.28228 | 31063 ft | 532 kts | 139° |
| 2026-05-07 19:13 | 49.67784 | 7.35938 | 31063 ft | 532 kts | 139° |
| 2026-05-07 19:14 | 49.62347 | 7.43584 | 31049 ft | 532 kts | 139° |
| 2026-05-07 19:14 | 49.56825 | 7.51325 | 31056 ft | 533 kts | 139° |
| 2026-05-07 19:15 | 49.51369 | 7.58954 | 31049 ft | 533 kts | 139° |
| 2026-05-07 19:15 | 49.45876 | 7.66599 | 31050 ft | 533 kts | 139° |
| 2026-05-07 19:16 | 49.40381 | 7.74233 | 31048 ft | 533 kts | 139° |
| 2026-05-07 19:16 | 49.34863 | 7.81870 | 31046 ft | 533 kts | 139° |
| 2026-05-07 19:17 | 49.29334 | 7.89502 | 31051 ft | 534 kts | 139° |
| 2026-05-07 19:17 | 49.23800 | 7.97111 | 31048 ft | 534 kts | 139° |
| 2026-05-07 19:18 | 49.18272 | 8.04692 | 31049 ft | 534 kts | 139° |
| 2026-05-07 19:18 | 49.12759 | 8.12226 | 31051 ft | 535 kts | 139° |
| 2026-05-07 19:19 | 49.07191 | 8.19815 | 31049 ft | 536 kts | 139° |
| 2026-05-07 19:19 | 49.01515 | 8.27212 | 31059 ft | 535 kts | 148° |
| 2026-05-07 19:20 | 48.94780 | 8.31766 | 31071 ft | 530 kts | 169° |
| 2026-05-07 19:20 | 48.87515 | 8.33445 | 31059 ft | 528 kts | 173° |
| 2026-05-07 19:21 | 48.83930 | 8.34715 | 31069 ft | 532 kts | 162° |
| 2026-05-07 19:21 | 48.80579 | 8.36937 | 31060 ft | 535 kts | 152° |
| 2026-05-07 19:21 | 48.77480 | 8.40089 | 31070 ft | 537 kts | 141° |
| 2026-05-07 19:21 | 48.74792 | 8.44047 | 31075 ft | 539 kts | 131° |
| 2026-05-07 19:22 | 48.70325 | 8.53215 | 31071 ft | 541 kts | 126° |
| 2026-05-07 19:22 | 48.65957 | 8.62482 | 31080 ft | 541 kts | 127° |
| 2026-05-07 19:23 | 48.61531 | 8.71714 | 31078 ft | 542 kts | 127° |
| 2026-05-07 19:23 | 48.57121 | 8.80969 | 31071 ft | 542 kts | 127° |
| 2026-05-07 19:24 | 48.52690 | 8.90181 | 31072 ft | 543 kts | 127° |
| 2026-05-07 19:24 | 48.48270 | 8.99372 | 31067 ft | 543 kts | 127° |
| 2026-05-07 19:25 | 48.43820 | 9.08574 | 31069 ft | 543 kts | 127° |
| 2026-05-07 19:25 | 48.39362 | 9.17773 | 31066 ft | 544 kts | 127° |
| 2026-05-07 19:26 | 48.34894 | 9.26956 | 31070 ft | 543 kts | 127° |
| 2026-05-07 19:26 | 48.30414 | 9.36135 | 31068 ft | 544 kts | 127° |
| 2026-05-07 19:27 | 48.25891 | 9.45235 | 31063 ft | 543 kts | 132° |
| 2026-05-07 19:27 | 48.21318 | 9.51652 | 31066 ft | 542 kts | 141° |
| 2026-05-07 19:28 | 48.15579 | 9.58992 | 31063 ft | 542 kts | 141° |
| 2026-05-07 19:28 | 48.09888 | 9.66397 | 31062 ft | 542 kts | 141° |
| 2026-05-07 19:29 | 48.04665 | 9.73087 | 31059 ft | 542 kts | 141° |
| 2026-05-07 19:29 | 47.98946 | 9.80444 | 31058 ft | 542 kts | 141° |
| 2026-05-07 19:30 | 47.93220 | 9.87764 | 31066 ft | 543 kts | 141° |
| 2026-05-07 19:30 | 47.87481 | 9.95087 | 31066 ft | 543 kts | 141° |
| 2026-05-07 19:31 | 47.82415 | 10.03419 | 31081 ft | 548 kts | 122° |
| 2026-05-07 19:31 | 47.78558 | 10.13214 | 31075 ft | 549 kts | 121° |
| 2026-05-07 19:32 | 47.74715 | 10.23020 | 31076 ft | 548 kts | 122° |
| 2026-05-07 19:32 | 47.70864 | 10.32735 | 31070 ft | 549 kts | 121° |
| 2026-05-07 19:33 | 47.67003 | 10.42505 | 31066 ft | 550 kts | 122° |
| 2026-05-07 19:33 | 47.63112 | 10.52265 | 31067 ft | 550 kts | 122° |
| 2026-05-07 19:34 | 47.59219 | 10.62030 | 31062 ft | 550 kts | 122° |
| 2026-05-07 19:34 | 47.55311 | 10.71780 | 31064 ft | 551 kts | 122° |
| 2026-05-07 19:35 | 47.51397 | 10.81518 | 31056 ft | 551 kts | 122° |
| 2026-05-07 19:35 | 47.47466 | 10.91256 | 31055 ft | 551 kts | 122° |
| 2026-05-07 19:36 | 47.43528 | 11.00979 | 31061 ft | 552 kts | 122° |
| 2026-05-07 19:36 | 47.39576 | 11.10703 | 31066 ft | 552 kts | 123° |
| 2026-05-07 19:37 | 47.35612 | 11.20417 | 31073 ft | 553 kts | 123° |
| 2026-05-07 19:37 | 47.31634 | 11.30140 | 31074 ft | 553 kts | 123° |
| 2026-05-07 19:38 | 47.27648 | 11.39839 | 31070 ft | 555 kts | 123° |
| 2026-05-07 19:38 | 47.23673 | 11.49484 | 31067 ft | 555 kts | 123° |
| 2026-05-07 19:39 | 47.19643 | 11.59219 | 31078 ft | 556 kts | 123° |
| 2026-05-07 19:39 | 47.15613 | 11.68923 | 31071 ft | 557 kts | 123° |
| 2026-05-07 19:40 | 47.11566 | 11.78630 | 31060 ft | 557 kts | 124° |
| 2026-05-07 19:40 | 47.07547 | 11.88341 | 31055 ft | 558 kts | 121° |
| 2026-05-07 19:41 | 47.03710 | 11.98228 | 31053 ft | 557 kts | 122° |
| 2026-05-07 19:41 | 46.99859 | 12.08074 | 31063 ft | 557 kts | 122° |
| 2026-05-07 19:42 | 46.96013 | 12.17934 | 31065 ft | 558 kts | 122° |
| 2026-05-07 19:42 | 46.92146 | 12.27754 | 31078 ft | 560 kts | 122° |
| 2026-05-07 19:43 | 46.88250 | 12.37656 | 31074 ft | 562 kts | 122° |
| 2026-05-07 19:43 | 46.84331 | 12.47546 | 31065 ft | 562 kts | 122° |
| 2026-05-07 19:44 | 46.80404 | 12.57443 | 31059 ft | 565 kts | 122° |
| 2026-05-07 19:44 | 46.76449 | 12.67364 | 31047 ft | 566 kts | 123° |
| 2026-05-07 19:45 | 46.72506 | 12.77225 | 31024 ft | 565 kts | 123° |
| 2026-05-07 19:45 | 46.68556 | 12.87062 | 31020 ft | 562 kts | 123° |
| 2026-05-07 19:46 | 46.64614 | 12.96842 | 31028 ft | 561 kts | 123° |
| 2026-05-07 19:46 | 46.60647 | 13.06658 | 31023 ft | 562 kts | 123° |
| 2026-05-07 19:47 | 46.56662 | 13.16474 | 31031 ft | 564 kts | 123° |
| 2026-05-07 19:47 | 46.52669 | 13.26284 | 31035 ft | 564 kts | 123° |
| 2026-05-07 19:48 | 46.48657 | 13.36097 | 31034 ft | 564 kts | 123° |
| 2026-05-07 19:48 | 46.44642 | 13.45886 | 31029 ft | 565 kts | 124° |
| 2026-05-07 19:49 | 46.40506 | 13.55566 | 31053 ft | 563 kts | 129° |
| 2026-05-07 19:49 | 46.35980 | 13.64776 | 31038 ft | 563 kts | 129° |
| 2026-05-07 19:50 | 46.31685 | 13.73581 | 31037 ft | 563 kts | 129° |
| 2026-05-07 19:50 | 46.27154 | 13.82806 | 31032 ft | 560 kts | 129° |
| 2026-05-07 19:51 | 46.22613 | 13.92021 | 31023 ft | 562 kts | 129° |
| 2026-05-07 19:51 | 46.18073 | 14.01211 | 31020 ft | 561 kts | 130° |
| 2026-05-07 19:52 | 46.13526 | 14.10374 | 31014 ft | 562 kts | 130° |
| 2026-05-07 19:52 | 46.08992 | 14.19483 | 31017 ft | 560 kts | 132° |
| 2026-05-07 19:53 | 46.04277 | 14.28409 | 31017 ft | 561 kts | 131° |
| 2026-05-07 19:53 | 45.99581 | 14.37367 | 31029 ft | 560 kts | 132° |
| 2026-05-07 19:54 | 45.94855 | 14.46240 | 31022 ft | 559 kts | 132° |
| 2026-05-07 19:54 | 45.90134 | 14.55174 | 31018 ft | 559 kts | 132° |
| 2026-05-07 19:55 | 45.85400 | 14.64022 | 31019 ft | 559 kts | 132° |
| 2026-05-07 19:55 | 45.80696 | 14.72844 | 31019 ft | 560 kts | 132° |
| 2026-05-07 19:56 | 45.75958 | 14.81671 | 31023 ft | 559 kts | 132° |
| 2026-05-07 19:56 | 45.71216 | 14.90494 | 31022 ft | 558 kts | 132° |
| 2026-05-07 19:57 | 45.66474 | 14.99280 | 31022 ft | 558 kts | 132° |
| 2026-05-07 19:57 | 45.61733 | 15.08041 | 31013 ft | 556 kts | 132° |
| 2026-05-07 19:58 | 45.57000 | 15.16760 | 31018 ft | 555 kts | 132° |
| 2026-05-07 19:58 | 45.52259 | 15.25464 | 31031 ft | 555 kts | 132° |
| 2026-05-07 19:59 | 45.47516 | 15.34145 | 31021 ft | 554 kts | 132° |
| 2026-05-07 19:59 | 45.42773 | 15.42800 | 31009 ft | 553 kts | 133° |
| 2026-05-07 20:00 | 45.38028 | 15.51437 | 31015 ft | 553 kts | 133° |
| 2026-05-07 20:00 | 45.33312 | 15.59985 | 31007 ft | 553 kts | 133° |
| 2026-05-07 20:01 | 45.28562 | 15.68583 | 31009 ft | 552 kts | 133° |
| 2026-05-07 20:01 | 45.23800 | 15.77163 | 31012 ft | 552 kts | 133° |
| 2026-05-07 20:02 | 45.19053 | 15.85699 | 31008 ft | 551 kts | 133° |
| 2026-05-07 20:02 | 45.14297 | 15.94222 | 31012 ft | 551 kts | 133° |
| 2026-05-07 20:03 | 45.09537 | 16.02727 | 31013 ft | 550 kts | 133° |
| 2026-05-07 20:03 | 45.04779 | 16.11201 | 31021 ft | 550 kts | 133° |
| 2026-05-07 20:04 | 45.00013 | 16.19665 | 31025 ft | 551 kts | 133° |
| 2026-05-07 20:04 | 44.95427 | 16.27792 | 31026 ft | 550 kts | 133° |
| 2026-05-07 20:05 | 44.90642 | 16.36236 | 31029 ft | 550 kts | 133° |
| 2026-05-07 20:05 | 44.85866 | 16.44650 | 31029 ft | 550 kts | 133° |
| 2026-05-07 20:06 | 44.81168 | 16.52893 | 31032 ft | 550 kts | 133° |
| 2026-05-07 20:06 | 44.76372 | 16.61291 | 31034 ft | 550 kts | 133° |
| 2026-05-07 20:07 | 44.71608 | 16.69603 | 31034 ft | 550 kts | 133° |
| 2026-05-07 20:07 | 44.66789 | 16.77990 | 31037 ft | 551 kts | 133° |
| 2026-05-07 20:08 | 44.61961 | 16.86366 | 31035 ft | 552 kts | 133° |
| 2026-05-07 20:08 | 44.57124 | 16.94746 | 31044 ft | 553 kts | 133° |
| 2026-05-07 20:09 | 44.52334 | 17.03187 | 31049 ft | 554 kts | 133° |
| 2026-05-07 20:10 | 44.45092 | 17.15790 | 31063 ft | 553 kts | 133° |
| 2026-05-07 20:10 | 44.40301 | 17.24139 | 31048 ft | 553 kts | 133° |
| 2026-05-07 20:11 | 44.35455 | 17.32525 | 31072 ft | 553 kts | 133° |
| 2026-05-07 20:11 | 44.30624 | 17.40885 | 31071 ft | 553 kts | 133° |
| 2026-05-07 20:12 | 44.25930 | 17.48966 | 31070 ft | 553 kts | 133° |
| 2026-05-07 20:12 | 44.21076 | 17.57308 | 31072 ft | 554 kts | 133° |
| 2026-05-07 20:13 | 44.16216 | 17.65638 | 31073 ft | 554 kts | 133° |
| 2026-05-07 20:13 | 44.11344 | 17.73955 | 31069 ft | 553 kts | 134° |
| 2026-05-07 20:14 | 44.06497 | 17.82217 | 31067 ft | 554 kts | 134° |
| 2026-05-07 20:14 | 44.01607 | 17.90520 | 31069 ft | 554 kts | 134° |
| 2026-05-07 20:15 | 43.96722 | 17.98794 | 31067 ft | 554 kts | 134° |
| 2026-05-07 20:15 | 43.91832 | 18.07057 | 31066 ft | 554 kts | 133° |
| 2026-05-07 20:16 | 43.87011 | 18.15399 | 31082 ft | 554 kts | 133° |